< < Back
Terminal Aerodrome Forecast


Current Version              Previous Versions:   1  2  3  4  5  6  7  8  9  

Terminal Aerodrome Forecast

304
FTUS42 KJAX 252323
TAFSSI
TAF
KSSI 252323Z 2600/2624 08010G16KT P6SM SCT025 SCT250
     FM260200 08006KT P6SM FEW040 SCT250
     FM261400 06010KT P6SM SCT030 SCT250
     FM261600 07014G22KT P6SM SCT040 SCT250=

Latest METAR

105
SAUS70 KWBC 261000 RRJ
MTRSSI
METAR KSSI 260953Z AUTO 36004KT 10SM FEW030 24/23 A3005 RMK AO2 SLP176
T02390228


USA.gov is the U.S. government's official web portal to all federal, state and local government web resources and services.